createdAt,value
2018-01-07T00:01:55.148Z,39.60
2018-01-07T00:04:23.698Z,35.80
2018-01-07T00:06:52.075Z,35.40
2018-01-07T00:09:20.404Z,37.97
2018-01-07T00:11:48.738Z,37.30
2018-01-07T00:14:17.072Z,36.13
2018-01-07T00:16:45.444Z,34.60
2018-01-07T00:19:13.782Z,30.07
2018-01-07T00:21:42.161Z,29.27
2018-01-07T00:24:10.450Z,31.80
2018-01-07T00:26:38.745Z,30.33
2018-01-07T00:29:07.088Z,28.80
2018-01-07T00:31:35.490Z,27.83
2018-01-07T00:34:03.784Z,26.57
2018-01-07T00:36:32.175Z,28.27
2018-01-07T00:39:00.567Z,26.17
2018-01-07T00:41:28.894Z,25.27
2018-01-07T00:43:57.218Z,22.17
2018-01-07T00:46:26.276Z,24.47
2018-01-07T00:48:55.336Z,25.40
2018-01-07T00:51:23.665Z,22.13
2018-01-07T00:53:51.942Z,24.27
2018-01-07T00:56:21.088Z,24.70
2018-01-07T00:58:49.557Z,24.27
2018-01-07T01:01:17.842Z,25.70
2018-01-07T01:03:46.237Z,24.00
2018-01-07T01:06:14.606Z,24.87
2018-01-07T01:08:42.927Z,23.77
2018-01-07T01:11:11.231Z,24.40
2018-01-07T01:13:39.572Z,24.73
2018-01-07T01:16:07.829Z,25.30
2018-01-07T01:18:36.131Z,26.07
2018-01-07T01:21:05.898Z,24.80
2018-01-07T01:23:34.245Z,25.30
2018-01-07T01:26:03.341Z,24.20
2018-01-07T01:28:31.638Z,25.07
2018-01-07T01:30:59.917Z,24.40
2018-01-07T01:33:28.247Z,22.53
2018-01-07T01:35:57.285Z,21.87
2018-01-07T01:38:25.608Z,23.10
2018-01-07T01:40:54.061Z,26.00
2018-01-07T01:43:22.365Z,23.00
2018-01-07T01:45:50.744Z,25.37
2018-01-07T01:48:19.271Z,22.70
2018-01-07T01:50:47.674Z,21.50
2018-01-07T01:53:16.069Z,23.93
2018-01-07T01:55:48.555Z,21.87
2018-01-07T01:58:16.837Z,22.47
2018-01-07T02:00:45.135Z,22.90
2018-01-07T02:03:13.564Z,20.23
2018-01-07T02:05:41.905Z,24.00
2018-01-07T02:08:10.136Z,22.43
2018-01-07T02:10:38.493Z,23.53
2018-01-07T02:13:06.779Z,21.30
2018-01-07T02:15:35.119Z,19.47
2018-01-07T02:18:03.509Z,22.27
2018-01-07T02:20:31.782Z,20.83
2018-01-07T02:23:00.272Z,21.67
2018-01-07T02:25:28.795Z,19.40
2018-01-07T02:27:57.074Z,22.93
2018-01-07T02:30:25.302Z,22.40
2018-01-07T02:32:53.774Z,19.90
2018-01-07T02:35:22.088Z,20.90
2018-01-07T02:37:50.472Z,20.33
2018-01-07T02:40:18.780Z,20.73
2018-01-07T02:42:47.807Z,17.90
2018-01-07T02:45:16.124Z,20.27
2018-01-07T02:47:44.657Z,19.47
2018-01-07T02:50:12.905Z,22.40
2018-01-07T02:52:41.966Z,22.53
2018-01-07T02:55:10.369Z,20.50
2018-01-07T02:57:39.414Z,21.93
2018-01-07T03:00:07.678Z,23.00
2018-01-07T03:02:36.230Z,21.33
2018-01-07T03:05:05.265Z,20.47
2018-01-07T03:07:33.565Z,23.80
2018-01-07T03:10:01.946Z,20.80
2018-01-07T03:12:30.280Z,21.33
2018-01-07T03:14:58.626Z,18.83
2018-01-07T03:17:27.745Z,22.37
2018-01-07T03:19:56.789Z,18.33
2018-01-07T03:22:25.025Z,18.83
2018-01-07T03:24:53.401Z,19.83
2018-01-07T03:27:21.687Z,20.23
2018-01-07T03:29:49.954Z,20.87
2018-01-07T03:32:18.284Z,19.47
2018-01-07T03:34:47.311Z,16.40
2018-01-07T03:37:15.605Z,17.37
2018-01-07T03:39:43.951Z,18.23
2018-01-07T03:42:12.251Z,16.30
2018-01-07T03:44:41.416Z,15.83
2018-01-07T03:47:09.654Z,16.40
2018-01-07T03:49:37.918Z,16.80
2018-01-07T03:52:06.407Z,17.37
2018-01-07T03:54:34.699Z,17.93
2018-01-07T03:57:03.034Z,15.90
2018-01-07T03:59:31.458Z,17.17
2018-01-07T04:01:59.757Z,15.73
2018-01-07T04:04:28.746Z,14.60
2018-01-07T04:06:57.982Z,15.17
2018-01-07T04:09:26.376Z,18.83
2018-01-07T04:11:54.787Z,16.67
2018-01-07T04:14:23.957Z,16.50
2018-01-07T04:16:52.273Z,16.27
2018-01-07T04:19:21.344Z,16.40
2018-01-07T04:21:49.682Z,19.20
2018-01-07T04:24:18.795Z,19.33
2018-01-07T04:26:47.232Z,19.37
2018-01-07T04:29:15.654Z,16.90
2018-01-07T04:31:43.935Z,17.30
2018-01-07T04:34:17.445Z,17.67
2018-01-07T04:36:45.920Z,17.40
2018-01-07T04:39:14.284Z,17.90
2018-01-07T04:41:42.643Z,18.80
2018-01-07T04:44:11.029Z,16.93
2018-01-07T04:46:39.383Z,18.80
2018-01-07T04:49:07.727Z,18.00
2018-01-07T04:51:35.964Z,21.60
2018-01-07T04:54:04.326Z,21.00
2018-01-07T04:56:32.720Z,16.17
2018-01-07T04:59:01.069Z,21.50
2018-01-07T05:01:37.075Z,23.90
2018-01-07T05:04:05.369Z,24.43
2018-01-07T05:06:33.662Z,19.27
2018-01-07T05:09:02.137Z,18.60
2018-01-07T05:11:31.162Z,20.03
2018-01-07T05:13:59.447Z,18.30
2018-01-07T05:16:27.811Z,23.13
2018-01-07T05:18:56.127Z,24.33
2018-01-07T05:21:24.446Z,21.57
2018-01-07T05:23:53.746Z,20.20
2018-01-07T05:26:22.806Z,20.57
2018-01-07T05:28:51.056Z,21.50
2018-01-07T05:31:19.372Z,19.30
2018-01-07T05:33:47.603Z,22.43
2018-01-07T05:36:15.893Z,24.40
2018-01-07T05:38:44.251Z,24.23
2018-01-07T05:41:12.535Z,23.03
2018-01-07T05:43:40.828Z,25.60
2018-01-07T05:46:09.179Z,26.30
2018-01-07T05:48:37.462Z,22.50
2018-01-07T05:51:05.728Z,25.67
2018-01-07T05:53:34.227Z,33.47
2018-01-07T05:56:02.592Z,24.73
2018-01-07T05:58:30.894Z,32.33
2018-01-07T06:00:59.207Z,31.40
2018-01-07T06:03:28.221Z,30.13
2018-01-07T06:05:56.817Z,22.67
2018-01-07T06:08:25.124Z,29.47
2018-01-07T06:10:53.489Z,25.33
2018-01-07T06:13:21.760Z,28.10
2018-01-07T06:15:50.052Z,27.27
2018-01-07T06:18:18.447Z,26.10
2018-01-07T06:20:46.689Z,23.93
2018-01-07T06:23:14.992Z,20.33
2018-01-07T06:25:43.239Z,23.60
2018-01-07T06:28:11.629Z,31.20
2018-01-07T06:30:39.926Z,31.90
2018-01-07T06:33:08.395Z,20.40
2018-01-07T06:35:36.822Z,26.47
2018-01-07T06:38:05.232Z,22.50
2018-01-07T06:40:33.681Z,27.87
2018-01-07T06:43:02.012Z,29.33
2018-01-07T06:45:31.692Z,26.43
2018-01-07T06:48:00.041Z,30.40
2018-01-07T06:50:29.799Z,23.43
2018-01-07T06:53:05.041Z,24.00
2018-01-07T06:55:33.317Z,22.10
2018-01-07T06:58:01.557Z,22.00
2018-01-07T07:00:29.882Z,19.10
2018-01-07T07:02:58.934Z,25.13
2018-01-07T07:05:27.199Z,21.67
2018-01-07T07:07:55.481Z,29.13
2018-01-07T07:10:25.134Z,21.10
2018-01-07T07:12:53.504Z,18.97
2018-01-07T07:15:22.282Z,20.53
2018-01-07T07:17:50.524Z,21.60
2018-01-07T07:20:21.291Z,23.17
2018-01-07T07:22:53.238Z,20.20
2018-01-07T07:25:22.946Z,20.33
2018-01-07T07:27:51.290Z,18.03
2018-01-07T07:30:20.584Z,21.93
2018-01-07T07:32:49.601Z,19.47
2018-01-07T07:35:17.990Z,19.37
2018-01-07T07:37:46.477Z,19.63
2018-01-07T07:40:14.831Z,19.40
2018-01-07T07:42:43.135Z,19.40
2018-01-07T07:45:11.499Z,21.20
2018-01-07T07:47:39.758Z,19.00
2018-01-07T07:50:08.080Z,17.17
2018-01-07T07:52:36.396Z,16.90
2018-01-07T07:55:05.551Z,19.17
2018-01-07T07:57:33.828Z,18.77
2018-01-07T08:00:02.185Z,19.97
2018-01-07T08:02:31.184Z,16.87
2018-01-07T08:04:59.468Z,16.70
2018-01-07T08:07:27.892Z,15.80
2018-01-07T08:09:57.013Z,20.70
2018-01-07T08:12:25.309Z,19.37
2018-01-07T08:14:53.602Z,16.10
2018-01-07T08:17:22.331Z,19.33
2018-01-07T08:19:51.393Z,16.07
2018-01-07T08:22:19.716Z,22.20
2018-01-07T08:24:48.089Z,19.07
2018-01-07T08:27:16.375Z,16.97
2018-01-07T08:29:44.699Z,17.33
2018-01-07T08:32:13.206Z,16.80
2018-01-07T08:34:41.498Z,14.20
2018-01-07T08:37:10.643Z,16.57
2018-01-07T08:39:38.936Z,16.47
2018-01-07T08:42:08.129Z,16.37
2018-01-07T08:44:36.476Z,16.33
2018-01-07T08:47:05.191Z,13.60
2018-01-07T08:49:33.564Z,13.13
2018-01-07T08:52:01.926Z,11.23
2018-01-07T08:54:30.257Z,10.80
2018-01-07T08:56:58.569Z,12.17
2018-01-07T08:59:26.925Z,16.67
2018-01-07T09:01:56.047Z,9.57
2018-01-07T09:04:24.429Z,12.40
2018-01-07T09:06:52.781Z,10.47
2018-01-07T09:09:21.058Z,16.30
2018-01-07T09:11:49.402Z,14.47
2018-01-07T09:14:17.762Z,13.03
2018-01-07T09:16:46.061Z,11.80
2018-01-07T09:19:14.445Z,11.10
2018-01-07T09:21:42.799Z,9.97
2018-01-07T09:24:11.118Z,11.53
2018-01-07T09:26:39.473Z,13.20
2018-01-07T09:29:08.588Z,13.43
2018-01-07T09:31:36.894Z,13.70
2018-01-07T09:34:05.172Z,13.30
2018-01-07T09:36:33.528Z,15.40
2018-01-07T09:39:01.817Z,14.70
2018-01-07T09:41:30.149Z,13.50
2018-01-07T09:43:58.503Z,14.60
2018-01-07T09:46:26.936Z,14.50
2018-01-07T09:48:55.180Z,17.00
2018-01-07T09:51:23.581Z,15.20
2018-01-07T09:53:51.870Z,13.63
2018-01-07T09:56:21.598Z,13.63
2018-01-07T09:58:49.949Z,13.33
2018-01-07T10:01:18.219Z,15.67
2018-01-07T10:03:46.478Z,10.93
2018-01-07T10:06:15.550Z,10.50
2018-01-07T10:08:43.870Z,10.83
2018-01-07T10:11:12.246Z,15.40
2018-01-07T10:13:40.598Z,9.67
2018-01-07T10:16:08.961Z,13.03
2018-01-07T10:18:37.967Z,12.77
2018-01-07T10:21:06.367Z,11.77
2018-01-07T10:23:35.390Z,9.77
2018-01-07T10:26:03.657Z,10.87
2018-01-07T10:28:31.998Z,10.70
2018-01-07T10:31:00.261Z,11.47
2018-01-07T10:33:28.542Z,11.87
2018-01-07T10:35:56.915Z,10.17
2018-01-07T10:38:25.201Z,11.03
2018-01-07T10:40:53.482Z,13.00
2018-01-07T10:43:21.951Z,9.70
2018-01-07T10:45:50.221Z,10.60
2018-01-07T10:48:18.521Z,12.30
2018-01-07T10:50:46.857Z,10.77
2018-01-07T10:53:15.161Z,9.77
2018-01-07T10:55:43.467Z,11.37
2018-01-07T10:58:11.859Z,11.17
2018-01-07T11:00:45.682Z,9.60
2018-01-07T11:03:14.032Z,8.63
2018-01-07T11:05:42.343Z,10.23
2018-01-07T11:08:10.626Z,9.43
2018-01-07T11:10:39.028Z,9.07
2018-01-07T11:13:09.736Z,9.27
2018-01-07T11:15:38.063Z,9.63
2018-01-07T11:18:07.137Z,9.77
2018-01-07T11:20:35.673Z,9.30
2018-01-07T11:23:04.041Z,10.17
2018-01-07T11:25:32.302Z,10.13
2018-01-07T11:28:00.577Z,12.70
2018-01-07T11:30:28.875Z,10.97
2018-01-07T11:32:57.198Z,10.00
2018-01-07T11:35:26.300Z,10.17
2018-01-07T11:37:54.610Z,8.50
2018-01-07T11:40:22.917Z,9.60
2018-01-07T11:42:51.352Z,9.20
2018-01-07T11:45:19.634Z,8.13
2018-01-07T11:47:47.931Z,7.53
2018-01-07T11:50:16.457Z,7.47
2018-01-07T11:52:44.799Z,9.10
2018-01-07T11:55:13.055Z,8.43
2018-01-07T11:57:41.464Z,8.23
2018-01-07T12:00:09.801Z,8.97
2018-01-07T12:02:38.113Z,9.90
2018-01-07T12:05:06.442Z,10.10
2018-01-07T12:07:34.723Z,8.37
2018-01-07T12:10:03.025Z,8.17
2018-01-07T12:12:31.450Z,8.20
2018-01-07T12:14:59.732Z,10.17
2018-01-07T12:17:28.801Z,9.10
2018-01-07T12:19:57.209Z,9.10
2018-01-07T12:22:26.294Z,6.17
2018-01-07T12:24:54.721Z,10.60
2018-01-07T12:30:37.841Z,8.67
2018-01-07T12:33:06.964Z,8.47
2018-01-07T12:35:35.429Z,8.97
2018-01-07T12:38:03.741Z,9.27
2018-01-07T12:40:32.329Z,9.80
2018-01-07T12:43:00.593Z,8.70
2018-01-07T12:45:28.969Z,11.00
2018-01-07T12:47:57.286Z,8.23
2018-01-07T12:50:25.532Z,11.23
2018-01-07T12:52:53.838Z,10.00
2018-01-07T12:55:22.174Z,10.40
2018-01-07T12:57:50.495Z,10.17
2018-01-07T13:00:18.760Z,10.37
2018-01-07T13:02:47.141Z,10.00
2018-01-07T13:05:16.278Z,9.57
2018-01-07T13:07:44.541Z,10.83
2018-01-07T13:10:12.913Z,8.40
2018-01-07T13:12:41.194Z,8.00
2018-01-07T13:15:10.235Z,8.80
2018-01-07T13:17:38.593Z,9.03
2018-01-07T13:20:06.860Z,10.07
2018-01-07T13:22:35.457Z,11.20
2018-01-07T13:25:04.862Z,10.30
2018-01-07T13:27:33.994Z,9.33
2018-01-07T13:30:02.275Z,9.93
2018-01-07T13:32:31.506Z,10.00
2018-01-07T13:34:59.758Z,9.37
2018-01-07T13:37:28.873Z,9.33
2018-01-07T13:39:57.263Z,8.70
2018-01-07T13:42:26.333Z,11.13
2018-01-07T13:44:54.823Z,8.90
2018-01-07T13:47:23.258Z,10.30
2018-01-07T13:49:51.505Z,10.30
2018-01-07T13:52:19.822Z,10.40
2018-01-07T13:54:48.211Z,11.20
2018-01-07T13:57:16.571Z,9.70
2018-01-07T13:59:44.822Z,10.77
2018-01-07T14:02:13.128Z,10.00
2018-01-07T14:04:41.535Z,9.23
2018-01-07T14:07:10.709Z,10.40
2018-01-07T14:09:39.142Z,10.43
2018-01-07T14:12:07.437Z,9.23
2018-01-07T14:14:35.776Z,11.80
2018-01-07T14:17:04.133Z,8.90
2018-01-07T14:19:32.426Z,8.37
2018-01-07T14:22:00.794Z,9.60
2018-01-07T14:24:29.988Z,10.90
2018-01-07T14:26:59.095Z,8.87
2018-01-07T14:29:27.415Z,11.50
2018-01-07T14:31:55.784Z,11.13
2018-01-07T14:34:24.134Z,10.33
2018-01-07T14:36:52.474Z,9.00
2018-01-07T14:39:20.785Z,11.43
2018-01-07T14:41:49.144Z,8.50
2018-01-07T14:44:18.163Z,11.30
2018-01-07T14:46:46.699Z,11.50
2018-01-07T14:49:15.013Z,11.93
2018-01-07T14:51:43.514Z,11.87
2018-01-07T14:54:11.852Z,11.20
2018-01-07T14:56:40.407Z,10.20
2018-01-07T14:59:08.678Z,10.37
2018-01-07T15:01:36.953Z,9.10
2018-01-07T15:04:05.401Z,10.17
2018-01-07T15:06:33.706Z,9.63
2018-01-07T15:09:02.030Z,9.13
2018-01-07T15:11:30.382Z,8.17
2018-01-07T15:13:58.670Z,8.73
2018-01-07T15:16:27.108Z,7.10
2018-01-07T15:18:55.480Z,10.13
2018-01-07T15:21:23.904Z,8.37
2018-01-07T15:23:52.337Z,9.00
2018-01-07T15:26:21.041Z,9.70
2018-01-07T15:28:49.362Z,8.10
2018-01-07T15:31:17.850Z,10.50
2018-01-07T15:33:46.223Z,10.23
2018-01-07T15:36:15.125Z,8.97
2018-01-07T15:38:43.557Z,8.23
2018-01-07T15:41:11.905Z,9.63
2018-01-07T15:43:40.234Z,8.10
2018-01-07T15:46:08.581Z,9.00
2018-01-07T15:48:37.001Z,9.13
2018-01-07T15:51:05.351Z,7.83
2018-01-07T15:53:33.806Z,12.20
2018-01-07T15:56:02.296Z,7.17
2018-01-07T15:58:31.431Z,8.87
2018-01-07T16:01:00.533Z,11.90
2018-01-07T16:03:28.906Z,10.80
2018-01-07T16:05:57.267Z,10.40
2018-01-07T16:08:26.377Z,9.17
2018-01-07T16:10:55.943Z,10.47
2018-01-07T16:13:24.212Z,10.67
2018-01-07T16:15:52.589Z,11.90
2018-01-07T16:18:21.171Z,11.50
2018-01-07T16:20:49.469Z,12.90
2018-01-07T16:23:17.747Z,13.90
2018-01-07T16:25:46.215Z,11.33
2018-01-07T16:28:14.492Z,9.93
2018-01-07T16:30:42.810Z,10.07
2018-01-07T16:33:11.316Z,10.63
2018-01-07T16:35:39.643Z,10.20
2018-01-07T16:38:07.994Z,9.57
2018-01-07T16:40:36.529Z,9.10
2018-01-07T16:43:04.850Z,9.43
2018-01-07T16:45:33.130Z,7.93
2018-01-07T16:48:01.625Z,9.87
2018-01-07T16:50:29.864Z,9.87
2018-01-07T16:52:58.162Z,9.27
2018-01-07T16:55:26.685Z,11.63
2018-01-07T16:57:55.073Z,9.23
2018-01-07T17:00:24.092Z,9.57
2018-01-07T17:02:52.603Z,8.30
2018-01-07T17:05:20.983Z,8.77
2018-01-07T17:07:49.304Z,10.20
2018-01-07T17:10:17.782Z,10.83
2018-01-07T17:12:46.226Z,11.83
2018-01-07T17:15:14.575Z,10.60
2018-01-07T17:17:45.239Z,13.93
2018-01-07T17:20:13.630Z,13.30
2018-01-07T17:22:41.916Z,10.40
2018-01-07T17:25:10.268Z,13.03
2018-01-07T17:27:38.577Z,9.07
2018-01-07T17:30:07.215Z,13.70
2018-01-07T17:32:36.518Z,13.63
2018-01-07T17:35:04.764Z,11.80
2018-01-07T17:37:33.066Z,12.20
2018-01-07T17:40:01.410Z,12.90
2018-01-07T17:42:29.765Z,9.17
2018-01-07T17:44:58.850Z,10.43
2018-01-07T17:47:27.967Z,11.00
2018-01-07T17:49:56.341Z,13.00
2018-01-07T17:52:25.394Z,12.70
2018-01-07T17:54:53.918Z,14.23
2018-01-07T17:57:22.991Z,10.53
2018-01-07T17:59:52.098Z,14.80
2018-01-07T18:02:21.238Z,13.20
2018-01-07T18:04:51.501Z,14.93
2018-01-07T18:07:19.865Z,14.20
2018-01-07T18:09:48.252Z,15.50
2018-01-07T18:12:16.523Z,14.90
2018-01-07T18:14:44.821Z,11.27
2018-01-07T18:17:13.142Z,11.70
2018-01-07T18:19:41.479Z,14.90
2018-01-07T18:22:10.527Z,11.07
2018-01-07T18:24:38.843Z,13.83
2018-01-07T18:27:07.859Z,12.17
2018-01-07T18:29:36.110Z,14.40
2018-01-07T18:32:04.669Z,13.00
2018-01-07T18:34:32.987Z,13.70
2018-01-07T18:37:01.348Z,13.87
2018-01-07T18:39:29.830Z,14.00
2018-01-07T18:41:58.209Z,14.37
2018-01-07T18:44:26.486Z,13.03
2018-01-07T18:46:54.886Z,10.40
2018-01-07T18:49:23.128Z,12.50
2018-01-07T18:51:51.453Z,11.40
2018-01-07T18:54:19.906Z,14.83
2018-01-07T18:56:48.804Z,12.73
2018-01-07T19:08:17.690Z,12.90
2018-01-07T19:10:46.900Z,13.60
2018-01-07T19:13:16.382Z,15.33
2018-01-07T19:15:45.035Z,14.50
2018-01-07T19:18:13.347Z,11.67
2018-01-07T19:20:42.149Z,12.17
2018-01-07T19:23:23.372Z,10.47
2018-01-07T19:31:55.879Z,10.40
2018-01-07T19:34:25.114Z,10.93
2018-01-07T19:52:33.621Z,9.40
2018-01-07T19:55:03.047Z,9.40
2018-01-07T19:57:31.486Z,8.60
2018-01-07T20:00:00.823Z,10.80
2018-01-07T20:02:30.209Z,9.07
2018-01-07T20:04:58.539Z,9.70
2018-01-07T20:07:26.888Z,9.03
2018-01-07T20:09:55.198Z,8.87
2018-01-07T20:12:23.485Z,9.00
2018-01-07T20:14:51.904Z,10.30
2018-01-07T20:17:20.198Z,8.17
2018-01-07T20:19:48.536Z,9.60
2018-01-07T20:22:16.878Z,11.03
2018-01-07T20:24:45.228Z,9.07
2018-01-07T20:27:13.917Z,7.67
2018-01-07T20:29:42.372Z,9.40
2018-01-07T20:32:10.647Z,10.27
2018-01-07T20:34:39.418Z,8.67
2018-01-07T20:37:07.861Z,9.60
2018-01-07T20:39:36.246Z,9.77
2018-01-07T20:42:04.650Z,9.20
2018-01-07T20:44:33.004Z,10.10
2018-01-07T20:47:02.122Z,10.40
2018-01-07T20:49:31.410Z,9.10
2018-01-07T20:52:00.871Z,9.70
2018-01-07T20:54:29.132Z,11.27
2018-01-07T20:56:57.675Z,10.20
2018-01-07T20:59:26.734Z,9.13
2018-01-07T21:01:55.037Z,7.90
2018-01-07T21:04:23.300Z,7.90
2018-01-07T21:06:51.703Z,10.80
2018-01-07T21:09:21.223Z,9.27
2018-01-07T21:11:49.680Z,7.80
2018-01-07T21:14:18.129Z,9.40
2018-01-07T21:16:46.423Z,7.60
2018-01-07T21:19:15.466Z,12.30
2018-01-07T21:21:43.785Z,12.70
2018-01-07T21:24:12.050Z,10.47
2018-01-07T21:26:40.339Z,11.40
2018-01-07T21:29:08.673Z,8.70
2018-01-07T21:31:37.026Z,10.50
2018-01-07T21:34:05.323Z,12.83
2018-01-07T21:36:33.669Z,10.97
2018-01-07T21:39:02.745Z,10.10
2018-01-07T21:41:31.837Z,9.70
2018-01-07T21:44:01.027Z,10.80
2018-01-07T21:46:29.286Z,13.13
2018-01-07T21:48:57.526Z,9.83
2018-01-07T21:51:25.925Z,11.27
2018-01-07T21:53:54.161Z,9.10
2018-01-07T21:56:23.566Z,9.47
2018-01-07T21:58:52.714Z,12.60
2018-01-07T22:01:38.668Z,12.97
2018-01-07T22:04:06.941Z,13.83
2018-01-07T22:06:53.034Z,15.67
2018-01-07T22:09:21.352Z,11.03
2018-01-07T22:11:49.578Z,13.20
2018-01-07T22:14:17.824Z,14.90
2018-01-07T22:16:46.239Z,9.60
2018-01-07T22:19:14.543Z,11.83
2018-01-07T22:21:42.961Z,10.97
2018-01-07T22:24:12.080Z,13.03
2018-01-07T22:26:41.188Z,11.10
2018-01-07T22:29:09.488Z,14.33
2018-01-07T22:31:37.795Z,9.47
2018-01-07T22:34:06.092Z,10.20
2018-01-07T22:36:34.380Z,11.10
2018-01-07T22:39:03.488Z,12.13
2018-01-07T22:41:31.782Z,11.17
2018-01-07T22:44:00.114Z,10.50
2018-01-07T22:46:28.452Z,12.07
2018-01-07T22:48:56.760Z,11.20
2018-01-07T22:51:25.893Z,10.93
2018-01-07T22:53:54.320Z,15.67
2018-01-07T22:56:22.734Z,12.37
2018-01-07T22:58:51.935Z,10.93
2018-01-07T23:01:21.503Z,14.30
2018-01-07T23:03:50.349Z,12.37
2018-01-07T23:06:20.160Z,11.90
2018-01-07T23:08:50.195Z,14.67
2018-01-07T23:11:18.663Z,13.20
2018-01-07T23:13:47.027Z,11.87
2018-01-07T23:16:15.503Z,12.30
2018-01-07T23:18:43.850Z,10.80
2018-01-07T23:21:13.140Z,14.60
2018-01-07T23:23:41.461Z,12.20
2018-01-07T23:26:09.840Z,10.73
2018-01-07T23:28:38.274Z,12.10
2018-01-07T23:31:06.599Z,12.27
2018-01-07T23:33:34.921Z,11.20
2018-01-07T23:36:03.212Z,16.53
2018-01-07T23:38:31.585Z,17.20
2018-01-07T23:40:59.920Z,12.20
2018-01-07T23:43:28.227Z,15.87
2018-01-07T23:45:56.518Z,16.07
2018-01-07T23:48:25.602Z,11.40
2018-01-07T23:50:53.857Z,14.50
2018-01-07T23:53:22.128Z,14.13
2018-01-07T23:55:50.438Z,11.63
2018-01-07T23:58:18.775Z,11.37
